createdAt,value
2023-05-04T00:02:02.623Z,8.57
2023-05-04T00:07:08.294Z,8.30
2023-05-04T00:12:12.894Z,8.90
2023-05-04T00:17:16.366Z,9.70
2023-05-04T00:22:21.278Z,10.47
2023-05-04T00:27:24.633Z,8.98
2023-05-04T00:32:28.049Z,9.32
2023-05-04T00:37:32.998Z,8.85
2023-05-04T00:42:38.139Z,8.55
2023-05-04T00:47:41.725Z,8.90
2023-05-04T00:52:48.100Z,7.87
2023-05-04T00:57:52.685Z,8.65
2023-05-04T01:02:56.568Z,9.48
2023-05-04T01:08:08.621Z,8.68
2023-05-04T01:13:13.941Z,10.10
2023-05-04T01:18:17.891Z,9.45
2023-05-04T01:23:23.639Z,9.40
2023-05-04T01:28:34.231Z,10.73
2023-05-04T01:33:39.007Z,9.30
2023-05-04T01:38:45.002Z,9.90
2023-05-04T01:43:48.686Z,9.43
2023-05-04T01:48:52.074Z,9.50
2023-05-04T01:53:56.777Z,9.00
2023-05-04T01:59:00.065Z,10.80
2023-05-04T02:04:03.844Z,10.95
2023-05-04T02:09:08.859Z,9.60
2023-05-04T02:14:12.267Z,10.85
2023-05-04T02:19:15.638Z,11.45
2023-05-04T02:24:20.732Z,10.45
2023-05-04T02:29:24.102Z,10.27
2023-05-04T02:34:27.577Z,9.53
2023-05-04T02:39:32.522Z,11.23
2023-05-04T02:44:35.947Z,11.75
2023-05-04T02:49:39.316Z,10.45
2023-05-04T02:54:44.288Z,12.52
2023-05-04T02:59:47.863Z,10.50
2023-05-04T03:04:51.230Z,10.60
2023-05-04T03:09:55.999Z,9.80
2023-05-04T03:14:59.475Z,10.05
2023-05-04T03:20:03.795Z,11.55
2023-05-04T03:25:11.594Z,9.65
2023-05-04T03:30:16.313Z,10.27
2023-05-04T03:35:24.913Z,12.10
2023-05-04T03:40:32.678Z,12.60
2023-05-04T03:45:37.752Z,12.02
2023-05-04T03:50:41.249Z,13.27
2023-05-04T03:55:46.574Z,11.43
2023-05-04T04:00:50.236Z,11.05
2023-05-04T04:05:54.340Z,11.25
2023-05-04T04:11:00.501Z,10.17
2023-05-04T04:16:04.326Z,11.75
2023-05-04T04:21:07.956Z,11.10
2023-05-04T04:26:12.932Z,12.05
2023-05-04T04:31:16.293Z,11.77
2023-05-04T04:36:19.792Z,10.43
2023-05-04T04:41:25.104Z,10.50
2023-05-04T04:46:29.913Z,11.07
2023-05-04T04:51:33.235Z,9.88
2023-05-04T04:56:40.628Z,13.63
2023-05-04T05:01:44.102Z,10.93
2023-05-04T05:06:47.912Z,12.37
2023-05-04T05:11:52.673Z,9.85
2023-05-04T05:16:56.093Z,7.87
2023-05-04T05:21:59.456Z,9.20
2023-05-04T05:27:04.235Z,7.97
2023-05-04T05:32:07.923Z,6.18
2023-05-04T05:37:11.328Z,6.85
2023-05-04T05:42:16.009Z,8.57
2023-05-04T05:47:19.587Z,7.47
2023-05-04T05:52:22.915Z,8.93
2023-05-04T05:57:27.661Z,8.18
2023-05-04T06:02:31.223Z,6.10
2023-05-04T06:07:34.637Z,5.57
2023-05-04T06:12:39.352Z,10.40
2023-05-04T06:17:42.936Z,6.47
2023-05-04T06:22:46.377Z,8.60
2023-05-04T06:27:51.193Z,7.73
2023-05-04T06:32:54.593Z,8.50
2023-05-04T06:37:58.547Z,6.00
2023-05-04T06:43:03.441Z,7.75
2023-05-04T06:48:07.981Z,6.72
2023-05-04T06:53:12.886Z,5.53
2023-05-04T06:58:19.039Z,5.38
2023-05-04T07:03:22.341Z,7.68
2023-05-04T07:08:25.637Z,7.43
2023-05-04T07:13:30.325Z,6.18
2023-05-04T07:18:33.622Z,6.88
2023-05-04T07:23:37.169Z,6.80
2023-05-04T07:28:43.947Z,5.35
2023-05-04T07:33:47.382Z,7.00
2023-05-04T07:38:51.416Z,6.45
2023-05-04T07:43:56.073Z,6.23
2023-05-04T07:48:59.395Z,5.80
2023-05-04T07:54:02.747Z,6.15
2023-05-04T07:59:07.710Z,6.47
2023-05-04T08:04:11.032Z,6.63
2023-05-04T08:09:14.349Z,8.18
2023-05-04T08:14:19.078Z,6.30
2023-05-04T08:19:23.818Z,8.27
2023-05-04T08:24:27.403Z,5.88
2023-05-04T08:29:32.115Z,7.70
2023-05-04T08:34:36.661Z,6.90
2023-05-04T08:39:41.916Z,5.93
2023-05-04T08:44:46.976Z,6.97
2023-05-04T08:49:50.894Z,5.90
2023-05-04T08:54:57.074Z,7.00
2023-05-04T09:00:02.566Z,5.83
2023-05-04T09:05:07.960Z,5.07
2023-05-04T09:10:12.848Z,5.68
2023-05-04T09:15:19.380Z,5.32
2023-05-04T09:20:22.928Z,5.00
2023-05-04T09:25:26.452Z,4.82
2023-05-04T09:30:31.115Z,5.18
2023-05-04T09:35:34.712Z,6.07
2023-05-04T09:40:41.016Z,4.57
2023-05-04T09:45:47.530Z,5.20
2023-05-04T09:50:53.809Z,4.72
2023-05-04T09:56:09.612Z,6.28
2023-05-04T10:01:14.505Z,5.18
2023-05-04T10:06:18.579Z,4.73
2023-05-04T10:11:21.937Z,5.03
2023-05-04T10:16:34.653Z,4.03
2023-05-04T10:21:48.959Z,4.67
2023-05-04T10:27:04.159Z,5.63
2023-05-04T10:32:19.098Z,6.07
2023-05-04T10:37:22.970Z,4.90
2023-05-04T10:42:26.364Z,5.57
2023-05-04T10:47:33.118Z,5.05
2023-05-04T10:52:47.484Z,3.83
2023-05-04T10:57:51.916Z,5.10
2023-05-04T11:03:04.862Z,4.50
2023-05-04T11:08:16.852Z,4.10
2023-05-04T11:13:20.356Z,4.57
2023-05-04T11:18:34.196Z,5.18
2023-05-04T11:23:39.002Z,5.93
2023-05-04T11:28:42.792Z,4.55
2023-05-04T11:33:48.604Z,3.22
2023-05-04T11:38:52.615Z,5.43
2023-05-04T11:43:56.149Z,3.83
2023-05-04T11:49:01.162Z,3.60
2023-05-04T11:54:07.342Z,3.33
2023-05-04T11:59:11.863Z,4.30
2023-05-04T12:04:17.565Z,4.70
2023-05-04T12:09:20.922Z,4.97
2023-05-04T12:14:33.495Z,5.25
2023-05-04T12:19:49.211Z,5.45
2023-05-04T12:24:53.016Z,4.53
2023-05-04T12:29:56.397Z,5.13
2023-05-04T12:35:01.080Z,4.77
2023-05-04T12:40:11.365Z,4.10
2023-05-04T12:45:22.736Z,5.18
2023-05-04T12:50:27.583Z,6.10
2023-05-04T12:55:32.445Z,5.93
2023-05-04T13:00:37.807Z,6.37
2023-05-04T13:05:43.246Z,4.40
2023-05-04T13:10:47.313Z,5.53
2023-05-04T13:15:51.866Z,5.30
2023-05-04T13:20:57.112Z,3.72
2023-05-04T13:26:00.472Z,3.50
2023-05-04T13:31:03.809Z,4.83
2023-05-04T13:36:09.006Z,5.07
2023-05-04T13:41:12.339Z,6.10
2023-05-04T13:46:15.712Z,6.00
2023-05-04T13:51:21.151Z,4.90
2023-05-04T13:56:24.566Z,5.28
2023-05-04T14:01:28.067Z,3.60
2023-05-04T14:06:33.034Z,3.80
2023-05-04T14:11:36.371Z,3.67
2023-05-04T14:16:40.023Z,3.83
2023-05-04T14:21:44.819Z,4.00
2023-05-04T14:26:48.254Z,4.38
2023-05-04T14:31:51.611Z,4.25
2023-05-04T14:36:56.916Z,5.80
2023-05-04T14:42:00.286Z,4.38
2023-05-04T14:47:05.497Z,3.00
2023-05-04T14:52:12.783Z,4.03
2023-05-04T14:57:16.320Z,3.17
2023-05-04T15:02:20.009Z,2.90
2023-05-04T15:07:24.799Z,3.97
2023-05-04T15:12:28.845Z,3.08
2023-05-04T15:17:32.313Z,2.00
2023-05-04T15:22:37.053Z,2.42
2023-05-04T15:27:40.946Z,2.80
2023-05-04T15:32:44.283Z,3.87
2023-05-04T15:37:49.031Z,2.72
2023-05-04T15:42:52.388Z,1.80
2023-05-04T15:47:58.419Z,3.00
2023-05-04T15:53:03.163Z,3.80
2023-05-04T15:58:06.898Z,2.70
2023-05-04T16:03:11.653Z,2.97
2023-05-04T16:08:17.309Z,3.28
2023-05-04T16:13:21.814Z,3.08
2023-05-04T16:18:25.274Z,2.35
2023-05-04T16:23:30.041Z,3.22
2023-05-04T16:28:33.618Z,5.10
2023-05-04T16:33:37.134Z,5.00
2023-05-04T16:38:42.016Z,4.65
2023-05-04T16:43:45.428Z,4.47
2023-05-04T16:48:48.772Z,2.97
2023-05-04T16:53:53.471Z,3.65
2023-05-04T16:58:57.173Z,3.22
2023-05-04T17:04:00.532Z,3.40
2023-05-04T17:09:06.070Z,2.80
2023-05-04T17:14:09.422Z,6.15
2023-05-04T17:19:13.057Z,4.17
2023-05-04T17:24:18.478Z,4.57
2023-05-04T17:29:21.852Z,2.60
2023-05-04T17:34:25.224Z,6.70
2023-05-04T17:39:31.979Z,6.05
2023-05-04T17:44:35.376Z,3.47
2023-05-04T17:49:38.802Z,4.95
2023-05-04T17:54:43.793Z,5.15
2023-05-04T17:59:48.187Z,4.53
2023-05-04T18:04:51.776Z,3.83
2023-05-04T18:09:56.986Z,6.55
2023-05-04T18:15:00.406Z,3.27
2023-05-04T18:20:04.378Z,3.45
2023-05-04T18:25:10.336Z,4.30
2023-05-04T18:30:13.940Z,3.73
2023-05-04T18:35:17.547Z,3.37
2023-05-04T18:40:24.019Z,5.07
2023-05-04T18:45:27.996Z,4.83
2023-05-04T18:50:31.593Z,8.30
2023-05-04T18:55:36.427Z,4.60
2023-05-04T19:00:40.003Z,7.00
2023-05-04T19:05:44.746Z,4.68
2023-05-04T19:10:50.041Z,3.95
2023-05-04T19:15:53.438Z,6.53
2023-05-04T19:20:56.747Z,3.63
2023-05-04T19:26:01.457Z,5.47
2023-05-04T19:31:04.780Z,5.32
2023-05-04T19:36:08.303Z,8.27
2023-05-04T19:41:13.925Z,6.95
2023-05-04T19:46:17.387Z,7.93
2023-05-04T19:51:20.698Z,5.23
2023-05-04T19:56:25.416Z,5.40
2023-05-04T20:01:28.782Z,6.70
2023-05-04T20:06:32.088Z,3.70
2023-05-04T20:11:38.277Z,5.68
2023-05-04T20:16:41.776Z,3.43
2023-05-04T20:21:45.305Z,4.73
2023-05-04T20:26:50.268Z,3.80
2023-05-04T20:31:53.847Z,4.35
2023-05-04T20:36:57.644Z,2.57
2023-05-04T20:42:04.848Z,3.08
2023-05-04T20:47:08.196Z,3.20
2023-05-04T20:52:11.681Z,3.40
2023-05-04T20:57:16.944Z,4.15
2023-05-04T21:02:20.744Z,3.22
2023-05-04T21:07:24.275Z,3.83
2023-05-04T21:12:29.173Z,4.10
2023-05-04T21:17:32.618Z,3.75
2023-05-04T21:22:36.023Z,5.00
2023-05-04T21:27:42.495Z,4.78
2023-05-04T21:32:47.207Z,4.30
2023-05-04T21:37:50.487Z,5.45
2023-05-04T21:42:55.313Z,3.53
2023-05-04T21:47:58.803Z,3.00
2023-05-04T21:53:02.206Z,4.63
2023-05-04T21:58:07.083Z,3.07
2023-05-04T22:03:10.946Z,3.17
2023-05-04T22:08:14.242Z,6.20
2023-05-04T22:13:19.003Z,4.27
2023-05-04T22:18:22.780Z,4.25
2023-05-04T22:23:26.165Z,4.97
2023-05-04T22:28:30.883Z,5.80
2023-05-04T22:33:34.250Z,9.75
2023-05-04T22:38:37.565Z,9.43
2023-05-04T22:43:42.447Z,14.70
2023-05-04T22:48:47.484Z,15.87
2023-05-04T22:53:51.195Z,7.78
2023-05-04T22:58:55.932Z,9.00
2023-05-04T23:03:59.518Z,5.78
2023-05-04T23:09:04.623Z,4.72
2023-05-04T23:14:09.604Z,4.07
2023-05-04T23:19:13.178Z,4.80
2023-05-04T23:24:16.596Z,3.92
2023-05-04T23:29:21.364Z,4.82
2023-05-04T23:34:24.850Z,5.85
2023-05-04T23:39:28.279Z,4.65
2023-05-04T23:44:33.096Z,4.95
2023-05-04T23:49:36.461Z,9.02
2023-05-04T23:54:39.892Z,6.40
2023-05-04T23:59:44.586Z,5.93
